Time;durP1;ratioP1;P1;durP2;ratioP2;P2;SDS_P1;SDS_P2;PMS_P1;PMS_P2;Temp;Humidity;BMP_temperature;BMP_pressure;BME280_temperature;BME280_humidity;BME280_pressure;Samples;Min_cycle;Max_cycle;Signal;HPM_P1;HPM_P2
2023/01/04 00:00:20;;;;;;;7.80;2.37;;;;;;;;;;6224540;23;20154;-80
2023/01/04 00:02:46;;;;;;;7.90;2.50;;;;;;;;;;6227003;23;20512;-80
2023/01/04 00:05:11;;;;;;;7.33;2.50;;;;;;;;;;6251183;23;20237;-82
2023/01/04 00:07:36;;;;;;;7.60;2.90;;;;;;;;;;6225299;23;20147;-80
2023/01/04 00:10:02;;;;;;;10.27;2.30;;;;;;;;;;6254846;23;20143;-80
2023/01/04 00:12:27;;;;;;;8.50;2.80;;;;;;;;;;6227356;23;20541;-80
2023/01/04 00:14:53;;;;;;;7.50;2.70;;;;;;;;;;6253322;23;20139;-81
2023/01/04 00:17:18;;;;;;;8.30;2.47;;;;;;;;;;6254217;23;20140;-81
2023/01/04 00:19:43;;;;;;;11.93;2.47;;;;;;;;;;6229064;23;20215;-82
2023/01/04 00:22:09;;;;;;;7.27;2.47;;;;;;;;;;6257211;22;20212;-83
2023/01/04 00:24:34;;;;;;;5.90;2.67;;;;;;;;;;6227775;23;20240;-81
2023/01/04 00:26:59;;;;;;;11.63;2.40;;;;;;;;;;6256622;23;20143;-83
2023/01/04 00:29:25;;;;;;;6.17;2.20;;;;;;;;;;6254574;23;20150;-83
2023/01/04 00:31:50;;;;;;;9.80;2.80;;;;;;;;;;6222953;23;20615;-79
2023/01/04 00:34:16;;;;;;;9.13;2.60;;;;;;;;;;6218217;23;20177;-78
2023/01/04 00:36:42;;;;;;;7.40;2.30;;;;;;;;;;6247796;23;20321;-78
2023/01/04 00:39:09;;;;;;;6.80;1.90;;;;;;;;;;6246928;23;20147;-81
2023/01/04 00:41:38;;;;;;;11.23;2.60;;;;;;;;;;6243779;22;20230;-78
2023/01/04 00:44:04;;;;;;;4.50;2.10;;;;;;;;;;6221819;23;20431;-80
2023/01/04 00:46:30;;;;;;;8.83;2.43;;;;;;;;;;6244229;23;20372;-78
2023/01/04 00:48:56;;;;;;;7.13;2.13;;;;;;;;;;6244166;23;20401;-80
2023/01/04 00:51:21;;;;;;;11.17;2.53;;;;;;;;;;6248317;22;20398;-80
2023/01/04 00:53:46;;;;;;;9.20;2.37;;;;;;;;;;6241360;23;20527;-79
2023/01/04 00:56:12;;;;;;;10.17;2.63;;;;;;;;;;6243907;23;20585;-81
2023/01/04 00:58:37;;;;;;;9.63;2.50;;;;;;;;;;6241175;23;20535;-79
2023/01/04 01:01:06;;;;;;;9.10;2.40;;;;;;;;;;6240449;23;20151;-79
2023/01/04 01:03:31;;;;;;;9.10;2.90;;;;;;;;;;6215160;23;20210;-79
2023/01/04 01:06:02;;;;;;;9.60;2.00;;;;;;;;;;6244931;23;20747;-80
2023/01/04 01:08:27;;;;;;;7.00;2.97;;;;;;;;;;6246031;23;20617;-80
2023/01/04 01:10:53;;;;;;;8.70;1.90;;;;;;;;;;6220299;23;20374;-82
2023/01/04 01:13:19;;;;;;;6.80;2.60;;;;;;;;;;6219999;23;20198;-79
2023/01/04 01:15:44;;;;;;;6.00;2.23;;;;;;;;;;6247478;23;20143;-81
2023/01/04 01:18:10;;;;;;;10.27;2.30;;;;;;;;;;6247343;23;20416;-81
2023/01/04 01:20:39;;;;;;;7.50;2.50;;;;;;;;;;6248182;23;20143;-80
2023/01/04 01:23:05;;;;;;;7.53;3.03;;;;;;;;;;6246331;22;20177;-80
2023/01/04 01:25:32;;;;;;;6.17;1.90;;;;;;;;;;6253096;23;20370;-80
2023/01/04 01:27:57;;;;;;;7.37;2.47;;;;;;;;;;6224233;23;20169;-80
2023/01/04 01:30:22;;;;;;;13.87;3.50;;;;;;;;;;6246353;23;20792;-80
2023/01/04 01:32:48;;;;;;;8.40;2.80;;;;;;;;;;6248456;22;20553;-80
2023/01/04 01:35:13;;;;;;;11.03;3.33;;;;;;;;;;6221409;23;20598;-81
2023/01/04 01:37:38;;;;;;;3.83;2.40;;;;;;;;;;6246838;23;20181;-80
2023/01/04 01:40:04;;;;;;;6.90;2.70;;;;;;;;;;6250920;23;20278;-82
2023/01/04 01:42:29;;;;;;;8.57;2.97;;;;;;;;;;6226025;23;20274;-81
2023/01/04 01:45:00;;;;;;;8.77;3.00;;;;;;;;;;6250334;23;20143;-80
2023/01/04 01:47:40;;;;;;;4.80;2.23;;;;;;;;;;6251508;23;20147;-81
2023/01/04 01:50:14;;;;;;;8.03;2.40;;;;;;;;;;6222249;23;20433;-80
2023/01/04 01:52:40;;;;;;;8.70;2.40;;;;;;;;;;6222466;23;20394;-79
2023/01/04 01:55:07;;;;;;;8.40;2.23;;;;;;;;;;6250765;23;20362;-81
2023/01/04 01:57:33;;;;;;;5.60;2.90;;;;;;;;;;6253575;23;20367;-79
2023/01/04 02:00:00;;;;;;;7.70;2.03;;;;;;;;;;6253244;23;20370;-80
2023/01/04 02:02:26;;;;;;;5.93;2.50;;;;;;;;;;6223994;23;20520;-79
2023/01/04 02:04:51;;;;;;;4.50;1.97;;;;;;;;;;6248866;23;20401;-80
2023/01/04 02:07:19;;;;;;;7.27;2.43;;;;;;;;;;6251065;23;20144;-80
2023/01/04 02:09:45;;;;;;;8.30;2.90;;;;;;;;;;6251325;23;20194;-81
2023/01/04 02:12:13;;;;;;;7.67;2.67;;;;;;;;;;6260302;22;20382;-83
2023/01/04 02:14:43;;;;;;;8.70;2.53;;;;;;;;;;6261573;23;20392;-81
2023/01/04 02:17:16;;;;;;;6.90;2.80;;;;;;;;;;6254486;23;20425;-81
2023/01/04 02:19:44;;;;;;;11.20;2.97;;;;;;;;;;6229985;23;20394;-80
2023/01/04 02:22:09;;;;;;;6.07;2.97;;;;;;;;;;6254776;22;20393;-79
2023/01/04 02:24:54;;;;;;;6.20;2.20;;;;;;;;;;6249521;23;20950;-80
2023/01/04 02:27:29;;;;;;;8.43;2.70;;;;;;;;;;6250189;23;20131;-80
2023/01/04 02:29:54;;;;;;;4.90;2.37;;;;;;;;;;6245322;23;20373;-79
2023/01/04 02:32:30;;;;;;;4.17;1.93;;;;;;;;;;6245123;22;20386;-80
2023/01/04 02:35:10;;;;;;;6.50;2.63;;;;;;;;;;6216946;23;20135;-79
2023/01/04 02:37:41;;;;;;;3.57;2.10;;;;;;;;;;6245676;23;20346;-79
2023/01/04 02:40:12;;;;;;;10.83;2.40;;;;;;;;;;6246053;23;20362;-79
2023/01/04 02:45:23;;;;;;;6.80;2.73;;;;;;;;;;6247543;23;20418;-80
2023/01/04 02:50:39;;;;;;;6.40;2.80;;;;;;;;;;6254708;23;20392;-78
2023/01/04 02:53:11;;;;;;;6.80;2.47;;;;;;;;;;6232286;23;20423;-81
2023/01/04 02:55:40;;;;;;;8.10;2.70;;;;;;;;;;6233660;23;20374;-79
2023/01/04 02:58:17;;;;;;;5.73;2.37;;;;;;;;;;6257505;23;20370;-81
2023/01/04 03:06:52;;;;;;;8.13;3.27;;;;;;;;;;6251875;23;20807;-80
2023/01/04 03:09:20;;;;;;;14.10;4.23;;;;;;;;;;6221821;23;20377;-79
2023/01/04 03:14:44;;;;;;;7.83;2.77;;;;;;;;;;6251561;23;20353;-79
2023/01/04 03:17:11;;;;;;;6.30;2.80;;;;;;;;;;6215302;23;20952;-80
2023/01/04 03:19:55;;;;;;;9.73;2.83;;;;;;;;;;6220391;23;20860;-79
2023/01/04 03:36:12;;;;;;;6.60;2.00;;;;;;;;;;6243434;23;20349;-79
2023/01/04 03:49:59;;;;;;;2.73;1.60;;;;;;;;;;6248277;23;20368;-79
2023/01/04 03:52:27;;;;;;;3.23;1.60;;;;;;;;;;6232913;22;20446;-81
2023/01/04 03:54:53;;;;;;;4.53;1.60;;;;;;;;;;6240627;23;20363;-83
2023/01/04 03:57:19;;;;;;;4.50;1.70;;;;;;;;;;6212680;23;20378;-83
2023/01/04 03:59:48;;;;;;;2.33;1.40;;;;;;;;;;6213166;23;20712;-85
2023/01/04 04:02:13;;;;;;;2.33;1.50;;;;;;;;;;6238618;22;20871;-81
2023/01/04 04:10:09;;;;;;;1.90;1.40;;;;;;;;;;6233664;23;20366;-88
2023/01/04 04:12:34;;;;;;;3.23;1.47;;;;;;;;;;6234935;22;20740;-88
2023/01/04 04:15:00;;;;;;;2.97;1.37;;;;;;;;;;6235066;23;20198;-84
2023/01/04 04:17:25;;;;;;;3.33;1.40;;;;;;;;;;6236779;23;20254;-82
2023/01/04 04:19:50;;;;;;;1.50;1.07;;;;;;;;;;6237660;23;20149;-83
2023/01/04 04:22:16;;;;;;;4.93;1.37;;;;;;;;;;6237826;22;20209;-86
2023/01/04 04:24:41;;;;;;;2.00;1.33;;;;;;;;;;6237081;23;20672;-83
2023/01/04 04:27:06;;;;;;;3.83;1.37;;;;;;;;;;6238237;23;20143;-79
2023/01/04 04:29:31;;;;;;;1.63;1.27;;;;;;;;;;6234655;23;20504;-86
2023/01/04 04:31:57;;;;;;;1.60;1.00;;;;;;;;;;6236038;22;20244;-80
2023/01/04 04:34:22;;;;;;;1.60;1.00;;;;;;;;;;6231750;23;20155;-88
2023/01/04 04:36:47;;;;;;;3.27;1.60;;;;;;;;;;6236034;23;20193;-88
2023/01/04 04:39:13;;;;;;;2.03;1.30;;;;;;;;;;6236355;23;20231;-81
2023/01/04 04:41:40;;;;;;;2.77;1.20;;;;;;;;;;6237384;22;20474;-85
2023/01/04 04:44:10;;;;;;;5.77;1.50;;;;;;;;;;6236841;23;20174;-82
2023/01/04 04:46:35;;;;;;;2.40;1.07;;;;;;;;;;6236912;22;20393;-84
2023/01/04 04:49:01;;;;;;;4.10;1.00;;;;;;;;;;6237673;22;20710;-86
2023/01/04 04:51:26;;;;;;;3.70;1.20;;;;;;;;;;6237603;22;20617;-87
2023/01/04 04:53:51;;;;;;;4.70;1.20;;;;;;;;;;6238612;22;20143;-85
2023/01/04 04:56:17;;;;;;;2.30;1.13;;;;;;;;;;6238287;23;20642;-87
2023/01/04 04:58:42;;;;;;;1.60;1.20;;;;;;;;;;6238552;22;20149;-90
2023/01/04 05:01:07;;;;;;;3.03;1.30;;;;;;;;;;6234690;22;20401;-83
2023/01/04 05:03:33;;;;;;;1.30;0.90;;;;;;;;;;6238825;22;20479;-83
2023/01/04 05:05:58;;;;;;;2.13;1.20;;;;;;;;;;6236131;22;20628;-86
2023/01/04 05:08:24;;;;;;;3.10;1.40;;;;;;;;;;6238477;22;20151;-81
2023/01/04 05:10:49;;;;;;;1.97;1.20;;;;;;;;;;6236779;22;20752;-80
2023/01/04 05:13:14;;;;;;;1.40;1.07;;;;;;;;;;6236046;23;20674;-85
2023/01/04 05:15:40;;;;;;;1.20;0.90;;;;;;;;;;6238283;23;20209;-81
2023/01/04 05:18:07;;;;;;;1.23;1.07;;;;;;;;;;6235450;22;20143;-84
2023/01/04 05:20:33;;;;;;;2.40;1.27;;;;;;;;;;6239774;22;20390;-81
2023/01/04 05:22:58;;;;;;;1.53;1.17;;;;;;;;;;6240990;22;20812;-81
2023/01/04 05:25:23;;;;;;;1.73;1.20;;;;;;;;;;6241332;22;20231;-81
2023/01/04 05:27:49;;;;;;;1.20;1.10;;;;;;;;;;6239339;22;20764;-83
2023/01/04 05:32:59;;;;;;;1.53;1.10;;;;;;;;;;6232983;23;20639;-89
2023/01/04 05:35:24;;;;;;;2.13;1.13;;;;;;;;;;6238960;22;20359;-89
2023/01/04 05:37:50;;;;;;;1.87;1.00;;;;;;;;;;6237995;22;20546;-88
2023/01/04 05:40:15;;;;;;;4.07;1.00;;;;;;;;;;6235374;22;20678;-89
2023/01/04 05:42:40;;;;;;;1.97;1.67;;;;;;;;;;6236279;22;20143;-86
2023/01/04 05:45:06;;;;;;;1.63;1.10;;;;;;;;;;6234416;23;20190;-89
2023/01/04 05:47:31;;;;;;;1.00;0.90;;;;;;;;;;6231263;22;20147;-89
2023/01/04 05:49:56;;;;;;;1.20;1.10;;;;;;;;;;6235817;23;20147;-91
2023/01/04 05:52:24;;;;;;;1.47;1.00;;;;;;;;;;6214517;22;20317;-72
2023/01/04 05:54:52;;;;;;;1.70;1.40;;;;;;;;;;6242368;23;20175;-73
2023/01/04 05:57:21;;;;;;;2.63;1.30;;;;;;;;;;6216578;23;20366;-73
2023/01/04 05:59:46;;;;;;;1.87;1.30;;;;;;;;;;6236519;23;20393;-73
2023/01/04 06:02:13;;;;;;;1.10;1.00;;;;;;;;;;6186147;23;21119;-73
2023/01/04 06:04:38;;;;;;;5.05;1.30;;;;;;;;;;6183273;23;20187;-72
2023/01/04 06:07:03;;;;;;;2.67;1.20;;;;;;;;;;6185472;23;20424;-72
2023/01/04 06:09:28;;;;;;;1.67;1.40;;;;;;;;;;6210618;23;20140;-72
2023/01/04 06:11:54;;;;;;;8.60;1.73;;;;;;;;;;6184003;23;20243;-73
2023/01/04 06:14:19;;;;;;;1.90;1.00;;;;;;;;;;6209052;23;20144;-72
2023/01/04 06:16:44;;;;;;;1.67;1.20;;;;;;;;;;6185396;23;20178;-73
2023/01/04 06:19:10;;;;;;;1.53;1.37;;;;;;;;;;6185290;23;20873;-73
2023/01/04 06:21:35;;;;;;;2.97;1.20;;;;;;;;;;6184621;23;20179;-73
2023/01/04 06:24:00;;;;;;;2.43;1.20;;;;;;;;;;6211689;23;20171;-73
2023/01/04 06:26:26;;;;;;;3.30;1.33;;;;;;;;;;6185674;23;20155;-72
2023/01/04 06:28:51;;;;;;;3.33;1.10;;;;;;;;;;6184126;23;20178;-73
2023/01/04 06:31:16;;;;;;;2.10;1.13;;;;;;;;;;6211634;23;20166;-73
2023/01/04 06:33:41;;;;;;;2.37;1.30;;;;;;;;;;6209680;23;20148;-73
2023/01/04 06:36:07;;;;;;;5.53;1.20;;;;;;;;;;6213120;23;20148;-73
2023/01/04 06:38:32;;;;;;;5.03;1.43;;;;;;;;;;6211431;23;20643;-72
2023/01/04 06:40:58;;;;;;;2.80;1.13;;;;;;;;;;6210377;23;20654;-73
2023/01/04 06:43:23;;;;;;;2.87;1.40;;;;;;;;;;6210555;23;20635;-73
2023/01/04 06:45:49;;;;;;;3.50;1.40;;;;;;;;;;6184048;23;20151;-72
2023/01/04 06:48:14;;;;;;;2.23;1.50;;;;;;;;;;6211088;23;20535;-72
2023/01/04 06:50:39;;;;;;;5.50;1.53;;;;;;;;;;6212151;23;20626;-73
2023/01/04 06:53:04;;;;;;;4.47;1.93;;;;;;;;;;6208009;23;20344;-73
2023/01/04 06:55:30;;;;;;;3.60;1.93;;;;;;;;;;6211480;23;20144;-73
2023/01/04 06:57:56;;;;;;;2.40;1.60;;;;;;;;;;6207547;23;20171;-72
2023/01/04 07:00:21;;;;;;;3.90;1.60;;;;;;;;;;6211775;23;20274;-72
2023/01/04 07:02:46;;;;;;;6.90;1.70;;;;;;;;;;6210477;23;20167;-73
2023/01/04 07:05:11;;;;;;;4.73;1.70;;;;;;;;;;6211613;23;20219;-73
2023/01/04 07:07:37;;;;;;;3.90;1.70;;;;;;;;;;6183313;23;20205;-73
2023/01/04 07:10:02;;;;;;;3.40;1.73;;;;;;;;;;6211797;23;20271;-72
2023/01/04 07:12:27;;;;;;;4.33;1.60;;;;;;;;;;6183206;23;20591;-72
2023/01/04 07:14:53;;;;;;;3.77;1.93;;;;;;;;;;6209842;23;20233;-72
2023/01/04 07:17:18;;;;;;;3.67;1.70;;;;;;;;;;6184702;23;20151;-73
2023/01/04 07:19:43;;;;;;;4.37;1.60;;;;;;;;;;6209125;23;20567;-72
2023/01/04 07:22:09;;;;;;;6.60;1.63;;;;;;;;;;6180794;23;20155;-72
2023/01/04 07:24:34;;;;;;;7.57;1.70;;;;;;;;;;6209651;23;20562;-72
2023/01/04 07:26:59;;;;;;;5.60;1.60;;;;;;;;;;6210509;23;20155;-71
2023/01/04 07:29:25;;;;;;;6.63;1.53;;;;;;;;;;6209855;23;20144;-72
2023/01/04 07:31:51;;;;;;;6.40;1.30;;;;;;;;;;6182846;23;20250;-73
2023/01/04 07:34:17;;;;;;;6.27;1.30;;;;;;;;;;6208021;23;20155;-73
2023/01/04 07:36:42;;;;;;;1.80;1.20;;;;;;;;;;6184774;23;20433;-72
2023/01/04 07:39:11;;;;;;;2.60;1.10;;;;;;;;;;6211579;23;20395;-72
2023/01/04 07:41:38;;;;;;;2.70;1.20;;;;;;;;;;6211357;23;20172;-72
2023/01/04 07:44:03;;;;;;;3.10;1.13;;;;;;;;;;6212242;23;20957;-73
2023/01/04 07:46:29;;;;;;;2.80;1.30;;;;;;;;;;6184480;23;20411;-72
2023/01/04 07:48:54;;;;;;;7.73;1.07;;;;;;;;;;6184832;23;20223;-73
2023/01/04 07:51:19;;;;;;;3.00;1.43;;;;;;;;;;6211149;23;20685;-72
2023/01/04 07:53:45;;;;;;;3.10;1.00;;;;;;;;;;6184683;23;20159;-73
2023/01/04 07:56:10;;;;;;;2.07;1.07;;;;;;;;;;6211619;23;20144;-73
2023/01/04 07:58:38;;;;;;;2.43;1.10;;;;;;;;;;6211287;23;20191;-72
2023/01/04 08:01:08;;;;;;;2.60;0.97;;;;;;;;;;6185973;23;20176;-71
2023/01/04 08:03:33;;;;;;;2.17;1.00;;;;;;;;;;6211047;23;20484;-73
2023/01/04 08:06:03;;;;;;;3.40;1.00;;;;;;;;;;6184810;23;20858;-72
2023/01/04 08:08:28;;;;;;;1.97;1.00;;;;;;;;;;6210998;23;20219;-74
2023/01/04 08:10:54;;;;;;;2.50;0.93;;;;;;;;;;6208895;23;20426;-72
2023/01/04 08:13:19;;;;;;;2.33;1.10;;;;;;;;;;6209686;23;20144;-74
2023/01/04 08:15:50;;;;;;;2.30;1.10;;;;;;;;;;6210701;23;20596;-74
2023/01/04 08:18:16;;;;;;;2.87;1.50;;;;;;;;;;6182923;23;20143;-74
2023/01/04 08:20:41;;;;;;;2.83;1.20;;;;;;;;;;6210538;23;20383;-73
2023/01/04 08:23:06;;;;;;;2.73;1.07;;;;;;;;;;6210540;23;20172;-74
2023/01/04 08:25:31;;;;;;;1.70;1.03;;;;;;;;;;6210357;23;20198;-72
2023/01/04 08:27:57;;;;;;;3.83;0.97;;;;;;;;;;6209793;23;20151;-74
2023/01/04 08:30:22;;;;;;;2.67;1.03;;;;;;;;;;6210772;23;20164;-72
2023/01/04 08:32:47;;;;;;;1.83;1.13;;;;;;;;;;6208568;23;20175;-73
2023/01/04 08:35:13;;;;;;;1.83;0.80;;;;;;;;;;6209932;23;20148;-72
2023/01/04 08:37:38;;;;;;;1.97;1.20;;;;;;;;;;6210363;23;20144;-73
2023/01/04 08:40:04;;;;;;;10.27;1.20;;;;;;;;;;6208652;23;20241;-73
2023/01/04 08:42:29;;;;;;;1.77;1.10;;;;;;;;;;6210250;23;20487;-73
2023/01/04 08:44:55;;;;;;;2.20;0.80;;;;;;;;;;6180579;23;20158;-74
2023/01/04 08:47:20;;;;;;;2.50;0.80;;;;;;;;;;6182347;23;20156;-73
2023/01/04 08:49:46;;;;;;;1.83;0.90;;;;;;;;;;6209042;23;20401;-72
2023/01/04 08:52:12;;;;;;;3.37;1.03;;;;;;;;;;6183416;23;20168;-73
2023/01/04 08:54:37;;;;;;;3.93;0.80;;;;;;;;;;6183903;23;20624;-73
2023/01/04 08:57:03;;;;;;;2.70;0.80;;;;;;;;;;6209719;23;20375;-72
2023/01/04 08:59:28;;;;;;;1.97;1.07;;;;;;;;;;6209938;23;20213;-73
2023/01/04 09:01:54;;;;;;;2.23;1.00;;;;;;;;;;6183277;23;20148;-74
2023/01/04 09:04:19;;;;;;;2.03;1.13;;;;;;;;;;6210557;23;20164;-73
2023/01/04 09:06:44;;;;;;;1.00;0.80;;;;;;;;;;6210188;23;20148;-73
2023/01/04 09:09:09;;;;;;;1.60;1.00;;;;;;;;;;6210208;23;20556;-74
2023/01/04 09:11:36;;;;;;;2.70;0.90;;;;;;;;;;6182606;23;20171;-76
2023/01/04 09:14:02;;;;;;;2.37;0.93;;;;;;;;;;6183352;23;20152;-73
2023/01/04 09:16:28;;;;;;;1.83;0.83;;;;;;;;;;6210885;23;20706;-75
2023/01/04 09:18:53;;;;;;;1.00;0.70;;;;;;;;;;6209442;23;20370;-72
2023/01/04 09:21:20;;;;;;;1.87;0.97;;;;;;;;;;6183559;23;20176;-73
2023/01/04 09:23:45;;;;;;;1.03;0.90;;;;;;;;;;6210520;23;20255;-73
2023/01/04 09:26:15;;;;;;;1.00;0.80;;;;;;;;;;6209782;23;20402;-74
2023/01/04 09:28:41;;;;;;;1.43;0.90;;;;;;;;;;6183466;23;20151;-75
2023/01/04 09:31:07;;;;;;;1.77;0.83;;;;;;;;;;6183299;23;20405;-74
2023/01/04 09:33:32;;;;;;;1.20;0.80;;;;;;;;;;6186168;23;20371;-73
2023/01/04 09:36:02;;;;;;;1.80;1.00;;;;;;;;;;6187964;23;20159;-72
2023/01/04 09:38:27;;;;;;;1.50;0.80;;;;;;;;;;6183559;23;20217;-73
2023/01/04 09:40:55;;;;;;;1.20;0.90;;;;;;;;;;6210061;23;20839;-73
2023/01/04 09:43:21;;;;;;;2.97;0.90;;;;;;;;;;6183985;23;20179;-74
2023/01/04 09:45:48;;;;;;;2.00;0.90;;;;;;;;;;6184822;23;20376;-76
2023/01/04 09:48:15;;;;;;;1.93;0.80;;;;;;;;;;6183810;23;20156;-74
2023/01/04 09:50:48;;;;;;;2.40;1.20;;;;;;;;;;6183929;23;20395;-75
2023/01/04 09:53:19;;;;;;;1.20;0.90;;;;;;;;;;6196508;23;20467;-71
2023/01/04 09:55:47;;;;;;;1.57;1.33;;;;;;;;;;6212128;23;20804;-70
2023/01/04 09:58:19;;;;;;;1.97;0.90;;;;;;;;;;6238227;23;20382;-71
2023/01/04 10:01:03;;;;;;;2.83;0.80;;;;;;;;;;6214179;23;20878;-70
2023/01/04 10:03:38;;;;;;;1.63;0.90;;;;;;;;;;6240088;23;20413;-70
2023/01/04 10:06:05;;;;;;;2.00;0.80;;;;;;;;;;6242370;22;20350;-70
2023/01/04 10:08:30;;;;;;;8.53;1.07;;;;;;;;;;6241860;22;20371;-70
2023/01/04 10:11:01;;;;;;;1.90;0.90;;;;;;;;;;6240265;23;20382;-70
2023/01/04 10:13:36;;;;;;;2.27;0.90;;;;;;;;;;6243263;22;20163;-70
2023/01/04 10:16:20;;;;;;;3.23;1.10;;;;;;;;;;6241744;22;20699;-70
2023/01/04 10:19:06;;;;;;;2.10;0.80;;;;;;;;;;6240817;23;20370;-71
2023/01/04 10:21:50;;;;;;;2.27;1.00;;;;;;;;;;6239401;23;20400;-69
2023/01/04 10:24:34;;;;;;;3.43;1.10;;;;;;;;;;6236939;23;20421;-69
2023/01/04 10:27:28;;;;;;;7.40;1.40;;;;;;;;;;6236257;23;20443;-69
2023/01/04 10:30:12;;;;;;;3.77;1.47;;;;;;;;;;6133347;22;20390;-68
2023/01/04 10:32:37;;;;;;;8.03;1.70;;;;;;;;;;6240350;23;20391;-69
2023/01/04 10:35:12;;;;;;;2.80;1.40;;;;;;;;;;6241504;23;20375;-68
2023/01/04 10:37:37;;;;;;;5.97;2.00;;;;;;;;;;6239843;22;20245;-69
2023/01/04 10:40:10;;;;;;;11.47;1.87;;;;;;;;;;6240721;22;20864;-69
2023/01/04 10:42:38;;;;;;;5.93;1.90;;;;;;;;;;6238841;22;20187;-69
2023/01/04 10:45:12;;;;;;;10.90;2.60;;;;;;;;;;6240042;22;20429;-68
2023/01/04 10:47:58;;;;;;;8.53;3.03;;;;;;;;;;6239593;22;20416;-69
2023/01/04 10:50:26;;;;;;;12.23;3.17;;;;;;;;;;6239476;22;20369;-68
2023/01/04 10:52:59;;;;;;;14.60;3.20;;;;;;;;;;6239221;22;20409;-69
2023/01/04 10:55:28;;;;;;;10.00;3.00;;;;;;;;;;6241627;22;20361;-69
2023/01/04 10:57:59;;;;;;;10.50;3.23;;;;;;;;;;6238878;23;20474;-69
2023/01/04 11:00:24;;;;;;;16.90;4.30;;;;;;;;;;6241608;22;20362;-69
2023/01/04 11:02:49;;;;;;;13.30;3.50;;;;;;;;;;6240307;23;20481;-69
2023/01/04 11:05:33;;;;;;;12.83;3.60;;;;;;;;;;6241036;23;20155;-70
2023/01/04 11:08:09;;;;;;;15.20;4.07;;;;;;;;;;6240122;23;20143;-69
2023/01/04 11:10:52;;;;;;;15.00;3.30;;;;;;;;;;6238622;22;20376;-69
2023/01/04 11:13:17;;;;;;;11.60;3.23;;;;;;;;;;6241394;22;20416;-69
2023/01/04 11:15:44;;;;;;;13.23;3.67;;;;;;;;;;6239314;23;20665;-69
2023/01/04 11:18:10;;;;;;;12.77;3.67;;;;;;;;;;6238606;23;20155;-68
2023/01/04 11:20:36;;;;;;;10.23;3.13;;;;;;;;;;6238355;23;20382;-69
2023/01/04 11:23:04;;;;;;;11.93;3.40;;;;;;;;;;6241509;22;20796;-68
2023/01/04 11:25:33;;;;;;;12.87;4.30;;;;;;;;;;6241799;22;20528;-68
2023/01/04 11:28:05;;;;;;;15.60;4.13;;;;;;;;;;6239089;22;20739;-69
2023/01/04 11:30:45;;;;;;;21.70;4.07;;;;;;;;;;6241706;22;20367;-68
2023/01/04 11:33:15;;;;;;;14.10;3.07;;;;;;;;;;6240116;23;20535;-69
2023/01/04 11:35:43;;;;;;;16.90;3.70;;;;;;;;;;6240778;22;20900;-68
2023/01/04 11:38:11;;;;;;;25.43;4.50;;;;;;;;;;6238637;23;20733;-69
2023/01/04 11:40:36;;;;;;;24.90;4.37;;;;;;;;;;6240233;23;20413;-68
2023/01/04 11:43:16;;;;;;;15.53;4.60;;;;;;;;;;6239441;23;20500;-68
2023/01/04 11:45:51;;;;;;;23.67;4.53;;;;;;;;;;6240265;23;20147;-68
2023/01/04 11:48:16;;;;;;;20.00;4.47;;;;;;;;;;6240647;22;20365;-68
2023/01/04 11:50:43;;;;;;;25.20;5.50;;;;;;;;;;6241287;23;20420;-69
2023/01/04 11:53:29;;;;;;;19.33;4.77;;;;;;;;;;6240110;23;20248;-69
2023/01/04 11:56:07;;;;;;;21.73;4.63;;;;;;;;;;6240437;23;20382;-69
2023/01/04 11:58:32;;;;;;;29.13;5.20;;;;;;;;;;6239351;22;20427;-68
2023/01/04 12:00:57;;;;;;;29.47;5.17;;;;;;;;;;6241562;23;20474;-69
2023/01/04 12:03:27;;;;;;;24.70;4.87;;;;;;;;;;6239194;23;25099;-69
2023/01/04 12:05:52;;;;;;;20.43;4.93;;;;;;;;;;6240915;22;20226;-68
2023/01/04 12:08:31;;;;;;;27.00;6.67;;;;;;;;;;6238282;22;20895;-69
2023/01/04 12:10:57;;;;;;;20.00;3.83;;;;;;;;;;6239293;23;20150;-69
2023/01/04 12:13:23;;;;;;;20.27;4.47;;;;;;;;;;6241173;22;20408;-69
2023/01/04 12:15:57;;;;;;;20.63;4.60;;;;;;;;;;6241958;22;20370;-69
2023/01/04 12:18:27;;;;;;;12.77;3.47;;;;;;;;;;6239280;23;20146;-69
2023/01/04 12:20:52;;;;;;;11.93;3.00;;;;;;;;;;6241112;22;20424;-68
2023/01/04 12:23:19;;;;;;;17.87;4.13;;;;;;;;;;6237898;23;20801;-69
2023/01/04 12:25:47;;;;;;;12.90;3.23;;;;;;;;;;6238224;23;20158;-69
2023/01/04 12:28:31;;;;;;;12.33;3.43;;;;;;;;;;6239864;22;20377;-69
2023/01/04 12:31:15;;;;;;;9.90;2.73;;;;;;;;;;6239573;22;20363;-69
2023/01/04 12:33:41;;;;;;;16.90;4.00;;;;;;;;;;6238494;23;20456;-68
2023/01/04 12:36:07;;;;;;;23.37;4.00;;;;;;;;;;6237378;23;20825;-67
2023/01/04 12:38:51;;;;;;;19.57;4.00;;;;;;;;;;6237585;22;20195;-68
2023/01/04 12:41:17;;;;;;;19.10;5.20;;;;;;;;;;6239940;23;20370;-69
2023/01/04 12:43:42;;;;;;;27.90;4.43;;;;;;;;;;6237464;23;20433;-68
2023/01/04 12:49:22;;;;;;;20.90;4.87;;;;;;;;;;6239573;23;20138;-68
2023/01/04 12:51:48;;;;;;;19.63;4.90;;;;;;;;;;6239995;23;20389;-67
2023/01/04 12:54:30;;;;;;;16.70;4.70;;;;;;;;;;6239418;23;20731;-68
2023/01/04 12:57:08;;;;;;;19.30;4.50;;;;;;;;;;6238644;23;20695;-68
2023/01/04 12:59:38;;;;;;;19.47;3.93;;;;;;;;;;6240108;22;20450;-68
2023/01/04 13:02:42;;;;;;;25.17;4.27;;;;;;;;;;6238575;22;20394;-68
2023/01/04 13:05:17;;;;;;;18.47;4.17;;;;;;;;;;6117835;23;20377;-68
2023/01/04 13:07:45;;;;;;;16.07;3.87;;;;;;;;;;6244548;22;20471;-68
2023/01/04 13:10:27;;;;;;;18.07;3.10;;;;;;;;;;6239009;23;20390;-69
2023/01/04 13:13:09;;;;;;;17.53;4.63;;;;;;;;;;6240003;22;20776;-68
2023/01/04 13:15:56;;;;;;;19.40;3.50;;;;;;;;;;6239217;23;20358;-68
2023/01/04 13:18:34;;;;;;;12.83;4.30;;;;;;;;;;6240064;22;20357;-68
2023/01/04 13:21:10;;;;;;;12.97;3.90;;;;;;;;;;6234865;23;20894;-68
2023/01/04 13:23:35;;;;;;;14.53;3.07;;;;;;;;;;6263341;22;20781;-69
2023/01/04 13:26:19;;;;;;;11.60;3.03;;;;;;;;;;6236376;22;20821;-68
2023/01/04 13:28:44;;;;;;;17.63;2.97;;;;;;;;;;6232430;23;20461;-68
2023/01/04 13:31:10;;;;;;;12.40;3.00;;;;;;;;;;6237830;23;21134;-68
2023/01/04 13:33:35;;;;;;;16.40;3.20;;;;;;;;;;6240016;22;20238;-68
2023/01/04 13:36:03;;;;;;;13.47;3.20;;;;;;;;;;6237618;23;25048;-68
2023/01/04 13:38:38;;;;;;;8.53;2.40;;;;;;;;;;6237192;23;20158;-68
2023/01/04 13:41:16;;;;;;;12.10;2.53;;;;;;;;;;6242452;22;25128;-69
2023/01/04 13:43:45;;;;;;;15.93;3.20;;;;;;;;;;6240075;23;20487;-69
2023/01/04 13:46:19;;;;;;;10.70;2.87;;;;;;;;;;6240984;23;20406;-69
2023/01/04 13:48:46;;;;;;;8.30;2.40;;;;;;;;;;6235828;23;20423;-68
2023/01/04 13:51:24;;;;;;;11.63;2.60;;;;;;;;;;6239593;22;20374;-68
2023/01/04 13:53:53;;;;;;;8.43;2.50;;;;;;;;;;6239180;23;20421;-68
2023/01/04 13:56:23;;;;;;;11.37;3.00;;;;;;;;;;6241187;22;20362;-69
2023/01/04 13:58:48;;;;;;;10.93;3.73;;;;;;;;;;6241830;22;20366;-68
2023/01/04 14:01:18;;;;;;;12.17;2.27;;;;;;;;;;6242218;22;20369;-68
2023/01/04 14:03:43;;;;;;;13.00;3.60;;;;;;;;;;6240959;22;20167;-68
2023/01/04 14:06:08;;;;;;;15.73;3.20;;;;;;;;;;6239634;23;20706;-68
2023/01/04 14:08:36;;;;;;;19.13;3.50;;;;;;;;;;6239260;23;20143;-68
2023/01/04 14:11:01;;;;;;;14.37;3.20;;;;;;;;;;6238686;22;20636;-68
2023/01/04 14:13:27;;;;;;;17.60;3.57;;;;;;;;;;6237017;22;20382;-69
2023/01/04 14:16:12;;;;;;;15.77;3.20;;;;;;;;;;6240467;23;20158;-69
2023/01/04 14:18:37;;;;;;;17.77;3.87;;;;;;;;;;6238978;23;20182;-69
2023/01/04 14:21:03;;;;;;;13.47;3.43;;;;;;;;;;6238512;22;20727;-70
2023/01/04 14:23:32;;;;;;;13.27;3.67;;;;;;;;;;6239271;23;20171;-69
2023/01/04 14:25:57;;;;;;;20.47;3.80;;;;;;;;;;6238485;23;20162;-74
2023/01/04 14:28:27;;;;;;;12.97;3.57;;;;;;;;;;6238532;22;20808;-72
2023/01/04 14:30:58;;;;;;;16.13;4.30;;;;;;;;;;6237221;23;20226;-71
2023/01/04 14:33:25;;;;;;;16.50;3.40;;;;;;;;;;6240677;23;20900;-72
2023/01/04 14:36:00;;;;;;;18.70;4.23;;;;;;;;;;6237187;23;20390;-71
2023/01/04 14:38:26;;;;;;;21.27;4.03;;;;;;;;;;6234782;22;20416;-70
2023/01/04 14:40:51;;;;;;;18.40;3.63;;;;;;;;;;6239734;22;20378;-72
2023/01/04 14:43:36;;;;;;;24.30;3.90;;;;;;;;;;6235657;23;20206;-72
2023/01/04 14:46:02;;;;;;;16.03;3.97;;;;;;;;;;6241148;22;20148;-73
2023/01/04 14:48:30;;;;;;;18.80;4.00;;;;;;;;;;6237703;23;20397;-72
2023/01/04 14:50:57;;;;;;;19.20;4.10;;;;;;;;;;6233336;23;20147;-73
2023/01/04 14:53:22;;;;;;;21.63;5.47;;;;;;;;;;6237531;22;20770;-72
2023/01/04 14:55:47;;;;;;;16.37;3.83;;;;;;;;;;6241782;23;20370;-73
2023/01/04 14:58:12;;;;;;;16.13;4.07;;;;;;;;;;6240009;23;20234;-73
2023/01/04 15:00:38;;;;;;;18.07;5.20;;;;;;;;;;6241736;23;20143;-73
2023/01/04 15:03:03;;;;;;;37.93;5.20;;;;;;;;;;6242407;22;20698;-74
2023/01/04 15:05:29;;;;;;;21.97;6.30;;;;;;;;;;6240696;22;20219;-74
2023/01/04 15:07:54;;;;;;;18.33;5.53;;;;;;;;;;6239328;23;20475;-73
2023/01/04 15:10:21;;;;;;;19.87;5.43;;;;;;;;;;6239822;23;20366;-72
2023/01/04 15:12:46;;;;;;;20.90;4.70;;;;;;;;;;6237570;22;20677;-72
2023/01/04 15:15:11;;;;;;;23.10;4.60;;;;;;;;;;6240084;23;20405;-71
2023/01/04 15:17:37;;;;;;;24.67;5.53;;;;;;;;;;6237894;23;20486;-72
2023/01/04 15:20:02;;;;;;;24.50;5.13;;;;;;;;;;6238115;22;20201;-72
2023/01/04 15:22:28;;;;;;;22.50;5.03;;;;;;;;;;6238630;23;20178;-74
2023/01/04 15:24:53;;;;;;;13.53;4.00;;;;;;;;;;6234916;23;20652;-72
2023/01/04 15:27:18;;;;;;;23.57;5.17;;;;;;;;;;6239814;23;20213;-73
2023/01/04 15:29:43;;;;;;;22.40;5.17;;;;;;;;;;6235841;23;20157;-72
2023/01/04 15:32:09;;;;;;;14.40;4.30;;;;;;;;;;6239375;23;20232;-72
2023/01/04 15:34:34;;;;;;;21.23;5.47;;;;;;;;;;6236938;23;20147;-72